createdAt,value
2024-02-23T00:02:02.252Z,61.90
2024-02-23T00:04:29.193Z,62.00
2024-02-23T00:06:56.365Z,62.10
2024-02-23T00:09:23.317Z,62.20
2024-02-23T00:11:50.893Z,62.20
2024-02-23T00:14:21.489Z,62.50
2024-02-23T00:16:48.677Z,62.20
2024-02-23T00:19:17.960Z,62.20
2024-02-23T00:21:48.820Z,62.20
2024-02-23T00:24:17.397Z,62.40
2024-02-23T00:26:47.738Z,62.30
2024-02-23T00:29:14.632Z,62.50
2024-02-23T00:31:46.494Z,62.30
2024-02-23T00:34:16.229Z,62.30
2024-02-23T00:36:45.637Z,62.10
2024-02-23T00:39:14.836Z,62.40
2024-02-23T00:41:41.637Z,62.50
2024-02-23T00:44:08.519Z,62.30
2024-02-23T00:46:35.705Z,62.10
2024-02-23T00:49:03.464Z,61.80
2024-02-23T00:51:33.082Z,62.30
2024-02-23T00:54:02.449Z,62.00
2024-02-23T00:56:35.971Z,62.00
2024-02-23T00:59:08.161Z,62.20
2024-02-23T01:01:35.090Z,61.70
2024-02-23T01:04:02.023Z,61.70
2024-02-23T01:06:29.607Z,61.80
2024-02-23T01:08:59.174Z,61.70
2024-02-23T01:11:26.109Z,61.70
2024-02-23T01:13:53.140Z,61.60
2024-02-23T01:16:20.135Z,61.60
2024-02-23T01:18:47.046Z,61.60
2024-02-23T01:21:14.860Z,61.90
2024-02-23T01:23:41.695Z,61.70
2024-02-23T01:26:08.569Z,61.70
2024-02-23T01:28:35.685Z,61.80
2024-02-23T01:31:02.640Z,61.20
2024-02-23T01:33:29.653Z,61.70
2024-02-23T01:35:58.405Z,61.20
2024-02-23T01:38:26.213Z,61.10
2024-02-23T01:40:55.952Z,61.50
2024-02-23T01:43:22.791Z,61.40
2024-02-23T01:45:49.926Z,61.40
2024-02-23T01:48:17.749Z,61.50
2024-02-23T01:50:45.550Z,61.30
2024-02-23T01:53:16.565Z,61.20
2024-02-23T01:55:46.547Z,61.40
2024-02-23T01:58:13.567Z,61.40
2024-02-23T02:00:44.966Z,61.70
2024-02-23T02:03:13.281Z,61.00
2024-02-23T02:05:40.764Z,61.00
2024-02-23T02:08:08.308Z,61.20
2024-02-23T02:10:35.243Z,61.30
2024-02-23T02:13:06.810Z,61.70
2024-02-23T02:15:35.539Z,61.60
2024-02-23T02:18:02.467Z,61.80
2024-02-23T02:20:33.858Z,61.70
2024-02-23T02:23:04.190Z,61.80
2024-02-23T02:25:31.055Z,61.90
2024-02-23T02:27:57.861Z,62.20
2024-02-23T02:30:24.649Z,62.20
2024-02-23T02:32:51.605Z,62.30
2024-02-23T02:35:18.625Z,62.00
2024-02-23T02:37:45.553Z,62.10
2024-02-23T02:40:12.584Z,62.20
2024-02-23T02:42:39.355Z,62.20
2024-02-23T02:45:06.638Z,62.60
2024-02-23T02:47:33.559Z,62.30
2024-02-23T02:50:00.705Z,62.30
2024-02-23T02:52:28.077Z,62.40
2024-02-23T02:54:55.228Z,62.50
2024-02-23T02:57:22.338Z,62.60
2024-02-23T02:59:51.302Z,62.20
2024-02-23T03:02:18.347Z,62.20
2024-02-23T03:04:52.002Z,62.10
2024-02-23T03:07:21.070Z,62.20
2024-02-23T03:09:48.011Z,62.10
2024-02-23T03:12:15.072Z,62.70
2024-02-23T03:14:42.334Z,62.10
2024-02-23T03:17:12.661Z,62.20
2024-02-23T03:19:39.911Z,62.10
2024-02-23T03:22:07.001Z,62.30
2024-02-23T03:24:34.229Z,62.20
2024-02-23T03:27:01.471Z,62.20
2024-02-23T03:29:30.538Z,62.30
2024-02-23T03:31:57.721Z,61.90
2024-02-23T03:34:24.825Z,62.10
2024-02-23T03:36:53.984Z,62.00
2024-02-23T03:39:20.841Z,62.10
2024-02-23T03:41:47.732Z,62.20
2024-02-23T03:44:14.686Z,62.20
2024-02-23T03:46:41.838Z,62.40
2024-02-23T03:49:08.898Z,62.10
2024-02-23T03:51:40.155Z,62.30
2024-02-23T03:54:07.913Z,62.30
2024-02-23T03:56:43.752Z,62.30
2024-02-23T03:59:11.189Z,62.40
2024-02-23T04:01:40.205Z,62.40
2024-02-23T04:04:08.050Z,62.40
2024-02-23T04:06:36.127Z,62.30
2024-02-23T04:09:06.129Z,62.40
2024-02-23T04:11:34.144Z,62.50
2024-02-23T04:14:01.941Z,62.30
2024-02-23T04:16:29.377Z,62.30
2024-02-23T04:18:57.335Z,62.40
2024-02-23T04:21:25.048Z,62.50
2024-02-23T04:23:56.542Z,63.10
2024-02-23T04:26:23.826Z,62.60
2024-02-23T04:28:50.901Z,62.60
2024-02-23T04:31:17.948Z,62.50
2024-02-23T04:33:44.830Z,62.40
2024-02-23T04:36:11.705Z,62.60
2024-02-23T04:38:39.464Z,62.80
2024-02-23T04:41:06.566Z,62.50
2024-02-23T04:43:33.749Z,62.50
2024-02-23T04:46:00.534Z,62.60
2024-02-23T04:48:32.145Z,62.50
2024-02-23T04:50:59.352Z,62.50
2024-02-23T04:53:26.254Z,62.60
2024-02-23T04:55:53.245Z,62.60
2024-02-23T04:58:21.754Z,62.60
2024-02-23T05:00:48.830Z,62.70
2024-02-23T05:03:17.188Z,62.70
2024-02-23T05:05:44.063Z,63.20
2024-02-23T05:08:11.049Z,62.70
2024-02-23T05:10:38.044Z,62.80
2024-02-23T05:13:05.216Z,62.70
2024-02-23T05:15:32.060Z,62.70
2024-02-23T05:17:58.921Z,62.90
2024-02-23T05:20:25.803Z,62.80
2024-02-23T05:22:52.695Z,62.90
2024-02-23T05:25:19.514Z,62.70
2024-02-23T05:27:46.339Z,62.50
2024-02-23T05:30:14.248Z,62.70
2024-02-23T05:32:43.263Z,62.70
2024-02-23T05:35:10.668Z,62.60
2024-02-23T05:37:40.673Z,62.50
2024-02-23T05:40:11.376Z,62.40
2024-02-23T05:42:39.885Z,62.20
2024-02-23T05:45:10.268Z,62.40
2024-02-23T05:47:39.428Z,62.30
2024-02-23T05:50:07.760Z,62.50
2024-02-23T05:52:35.138Z,62.30
2024-02-23T05:55:02.439Z,62.30
2024-02-23T05:57:35.023Z,62.20
2024-02-23T06:00:02.015Z,62.20
2024-02-23T06:06:15.595Z,62.80
2024-02-23T06:08:45.163Z,62.00
2024-02-23T06:11:12.153Z,62.00
2024-02-23T06:13:43.729Z,61.80
2024-02-23T06:16:14.488Z,62.10
2024-02-23T06:18:42.288Z,61.80
2024-02-23T06:21:16.239Z,61.50
2024-02-23T06:23:43.450Z,61.70
2024-02-23T06:26:11.102Z,61.70
2024-02-23T06:28:39.829Z,61.80
2024-02-23T06:31:07.794Z,61.80
2024-02-23T06:33:35.038Z,61.70
2024-02-23T06:36:05.438Z,61.60
2024-02-23T06:38:32.437Z,61.40
2024-02-23T06:41:01.748Z,61.50
2024-02-23T06:43:28.717Z,61.50
2024-02-23T06:45:55.520Z,61.50
2024-02-23T06:48:22.501Z,61.60
2024-02-23T06:50:49.466Z,61.80
2024-02-23T06:53:16.381Z,61.50
2024-02-23T06:55:43.200Z,61.50
2024-02-23T06:58:11.590Z,61.60
2024-02-23T07:00:39.454Z,61.70
2024-02-23T07:03:06.485Z,61.60
2024-02-23T07:05:36.803Z,61.80
2024-02-23T07:08:06.755Z,61.70
2024-02-23T07:10:43.779Z,61.80
2024-02-23T07:13:11.129Z,61.80
2024-02-23T07:15:40.075Z,61.90
2024-02-23T07:18:09.581Z,62.20
2024-02-23T07:20:38.019Z,62.10
2024-02-23T07:23:08.742Z,62.10
2024-02-23T07:25:35.578Z,62.30
2024-02-23T07:28:02.395Z,62.30
2024-02-23T07:30:29.214Z,61.80
2024-02-23T07:32:56.225Z,62.20
2024-02-23T07:35:23.221Z,62.20
2024-02-23T07:37:50.090Z,62.10
2024-02-23T07:40:19.294Z,62.30
2024-02-23T07:42:48.266Z,62.10
2024-02-23T07:45:15.173Z,62.20
2024-02-23T07:47:42.143Z,62.10
2024-02-23T07:50:09.925Z,62.70
2024-02-23T07:52:37.629Z,62.10
2024-02-23T07:55:06.608Z,62.20
2024-02-23T07:57:34.168Z,62.00
2024-02-23T08:00:01.426Z,61.80
2024-02-23T08:02:28.489Z,61.90
2024-02-23T08:04:55.657Z,61.50
2024-02-23T08:07:24.060Z,61.60
2024-02-23T08:09:50.929Z,61.70
2024-02-23T08:12:17.860Z,61.90
2024-02-23T08:14:46.529Z,61.90
2024-02-23T08:17:13.835Z,62.10
2024-02-23T08:19:40.812Z,61.90
2024-02-23T08:22:07.768Z,61.80
2024-02-23T08:24:34.649Z,61.80
2024-02-23T08:27:01.773Z,61.60
2024-02-23T08:29:31.712Z,61.80
2024-02-23T08:31:58.789Z,61.60
2024-02-23T08:34:30.846Z,61.30
2024-02-23T08:36:59.848Z,61.40
2024-02-23T08:39:31.338Z,61.60
2024-02-23T08:41:58.276Z,61.60
2024-02-23T08:44:25.768Z,61.60
2024-02-23T08:46:55.924Z,61.50
2024-02-23T08:49:23.058Z,61.30
2024-02-23T08:51:50.035Z,61.50
2024-02-23T08:54:20.034Z,61.20
2024-02-23T08:56:46.985Z,61.10
2024-02-23T08:59:14.061Z,60.80
2024-02-23T09:01:40.987Z,60.80
2024-02-23T09:04:07.971Z,61.00
2024-02-23T09:06:39.556Z,61.00
2024-02-23T09:09:10.824Z,60.90
2024-02-23T09:11:40.065Z,60.90
2024-02-23T09:14:10.075Z,60.60
2024-02-23T09:16:38.464Z,61.00
2024-02-23T09:19:05.554Z,60.90
2024-02-23T09:21:35.038Z,60.90
2024-02-23T09:24:03.290Z,61.50
2024-02-23T09:26:32.773Z,61.10
2024-02-23T09:28:59.785Z,60.40
2024-02-23T09:31:29.246Z,60.50
2024-02-23T09:33:57.535Z,60.10
2024-02-23T09:36:24.978Z,60.30
2024-02-23T09:38:54.514Z,60.10
2024-02-23T09:41:29.423Z,60.30
2024-02-23T09:44:03.391Z,60.00
2024-02-23T09:46:31.934Z,60.30
2024-02-23T09:49:19.666Z,59.90
2024-02-23T09:51:53.146Z,59.60
2024-02-23T09:54:20.787Z,59.20
2024-02-23T09:56:52.288Z,58.90
2024-02-23T09:59:25.199Z,59.00
2024-02-23T10:02:11.775Z,59.20
2024-02-23T10:04:59.919Z,59.20
2024-02-23T10:07:29.363Z,58.90
2024-02-23T10:10:04.724Z,59.30
2024-02-23T10:12:37.311Z,59.40
2024-02-23T10:15:10.447Z,59.50
2024-02-23T10:17:52.434Z,59.30
2024-02-23T10:20:19.424Z,59.60
2024-02-23T10:22:46.915Z,59.80
2024-02-23T10:25:13.935Z,59.10
2024-02-23T10:27:43.986Z,58.50
2024-02-23T10:30:17.347Z,58.80
2024-02-23T10:32:46.626Z,58.70
2024-02-23T10:35:18.216Z,58.50
2024-02-23T10:37:49.917Z,58.70
2024-02-23T10:40:26.463Z,59.10
2024-02-23T10:43:09.939Z,58.60
2024-02-23T10:45:40.989Z,58.30
2024-02-23T10:48:14.865Z,58.70
2024-02-23T10:50:52.360Z,57.40
2024-02-23T10:53:28.177Z,57.00
2024-02-23T10:56:11.263Z,57.10
2024-02-23T11:12:11.661Z,55.80
2024-02-23T11:14:45.354Z,56.80
2024-02-23T11:17:23.297Z,57.60
2024-02-23T11:20:10.840Z,56.70
2024-02-23T11:22:46.625Z,56.50
2024-02-23T11:26:09.614Z,56.50
2024-02-23T11:28:55.591Z,56.00
2024-02-23T11:31:32.767Z,56.30
2024-02-23T11:34:00.013Z,56.40
2024-02-23T11:36:33.716Z,56.50
2024-02-23T11:39:02.081Z,57.10
2024-02-23T11:41:30.223Z,57.10
2024-02-23T11:43:59.363Z,57.10
2024-02-23T11:46:35.124Z,57.30
2024-02-23T11:49:02.207Z,56.30
2024-02-23T11:51:30.566Z,57.10
2024-02-23T11:53:59.752Z,57.00
2024-02-23T11:56:27.974Z,56.70
2024-02-23T11:58:59.133Z,57.00
2024-02-23T12:01:26.056Z,57.10
2024-02-23T12:03:52.943Z,57.00
2024-02-23T12:06:19.974Z,57.20
2024-02-23T12:08:47.754Z,57.10
2024-02-23T12:11:15.934Z,57.10
2024-02-23T12:13:43.671Z,57.10
2024-02-23T12:16:10.792Z,56.70
2024-02-23T12:18:38.254Z,56.70
2024-02-23T12:21:10.496Z,56.90
2024-02-23T12:23:45.879Z,56.40
2024-02-23T12:26:18.814Z,56.20
2024-02-23T12:28:46.841Z,56.60
2024-02-23T12:31:14.210Z,56.70
2024-02-23T12:33:42.297Z,56.80
2024-02-23T12:36:11.708Z,56.70
2024-02-23T12:38:38.945Z,57.00
2024-02-23T12:41:06.276Z,57.00
2024-02-23T12:43:33.620Z,57.60
2024-02-23T12:46:02.477Z,58.20
2024-02-23T12:48:29.385Z,58.50
2024-02-23T12:50:56.603Z,58.70
2024-02-23T12:53:37.453Z,58.60
2024-02-23T12:56:12.938Z,59.00
2024-02-23T12:58:45.445Z,59.10
2024-02-23T13:01:15.003Z,59.10
2024-02-23T13:03:44.825Z,59.20
2024-02-23T13:06:13.410Z,58.70
2024-02-23T13:08:43.781Z,58.10
2024-02-23T13:14:18.022Z,57.90
2024-02-23T13:16:48.155Z,58.60
2024-02-23T13:19:17.463Z,58.20
2024-02-23T13:21:55.191Z,58.40
2024-02-23T13:24:25.528Z,57.80
2024-02-23T13:26:52.641Z,57.60
2024-02-23T13:29:22.739Z,56.50
2024-02-23T13:31:57.292Z,56.20
2024-02-23T13:34:28.871Z,55.70
2024-02-23T13:37:33.006Z,56.10
2024-02-23T13:40:11.254Z,55.20
2024-02-23T13:42:44.588Z,55.50
2024-02-23T13:45:18.304Z,55.90
2024-02-23T13:48:06.703Z,55.70
2024-02-23T13:50:54.706Z,54.80
2024-02-23T13:53:29.084Z,55.60
2024-02-23T13:56:33.800Z,56.30
2024-02-23T13:59:03.726Z,54.90
2024-02-23T14:02:12.748Z,55.80
2024-02-23T14:07:52.174Z,54.50
2024-02-23T14:10:55.587Z,54.20
2024-02-23T14:13:49.955Z,53.30
2024-02-23T14:16:28.309Z,53.30
2024-02-23T14:19:05.355Z,53.20
2024-02-23T14:24:36.841Z,53.50
2024-02-23T14:27:44.449Z,53.20
2024-02-23T14:30:30.933Z,54.00
2024-02-23T14:33:17.923Z,53.80
2024-02-23T14:36:34.122Z,53.40
2024-02-23T14:39:23.963Z,53.10
2024-02-23T14:42:37.259Z,53.80
2024-02-23T14:48:21.174Z,53.10
2024-02-23T14:51:23.517Z,53.70
2024-02-23T14:59:52.651Z,53.00
2024-02-23T15:03:46.192Z,54.10
2024-02-23T15:06:34.002Z,53.40
2024-02-23T15:09:24.413Z,53.50
2024-02-23T15:12:24.940Z,53.10
2024-02-23T15:16:03.738Z,52.90
2024-02-23T15:28:30.517Z,51.60
2024-02-23T15:31:10.328Z,52.10
2024-02-23T15:33:46.789Z,52.40
2024-02-23T15:36:57.645Z,52.30
2024-02-23T15:39:44.994Z,50.80
2024-02-23T15:42:20.789Z,51.80
2024-02-23T15:44:56.055Z,52.30
2024-02-23T15:47:43.894Z,51.40
2024-02-23T15:50:35.153Z,51.00
2024-02-23T15:53:20.548Z,51.50
2024-02-23T15:55:57.561Z,51.70
2024-02-23T15:58:36.185Z,51.70
2024-02-23T16:01:07.952Z,51.70
2024-02-23T16:03:36.962Z,52.00
2024-02-23T16:06:06.757Z,50.90
2024-02-23T16:09:00.548Z,51.60
2024-02-23T16:11:36.336Z,50.90
2024-02-23T16:14:12.506Z,51.90
2024-02-23T16:16:42.623Z,52.10
2024-02-23T16:19:14.181Z,52.10
2024-02-23T16:21:47.025Z,52.20
2024-02-23T16:24:28.813Z,50.70
2024-02-23T16:26:58.787Z,51.60
2024-02-23T16:29:28.253Z,50.90
2024-02-23T16:31:55.129Z,51.30
2024-02-23T16:34:25.514Z,51.50
2024-02-23T16:37:00.873Z,51.60
2024-02-23T16:39:30.177Z,51.40
2024-02-23T16:42:08.909Z,51.80
2024-02-23T16:44:37.254Z,52.30
2024-02-23T16:47:07.147Z,52.00
2024-02-23T16:49:39.006Z,51.80
2024-02-23T16:52:07.519Z,52.10
2024-02-23T16:54:34.478Z,52.10
2024-02-23T16:57:01.506Z,52.30
2024-02-23T16:59:28.575Z,52.40
2024-02-23T17:01:57.181Z,52.30
2024-02-23T17:04:26.780Z,52.50
2024-02-23T17:06:53.977Z,52.50
2024-02-23T17:09:28.422Z,53.10
2024-02-23T17:11:55.473Z,52.40
2024-02-23T17:14:22.999Z,52.70
2024-02-23T17:17:10.337Z,52.80
2024-02-23T17:19:43.542Z,52.30
2024-02-23T17:22:35.778Z,52.70
2024-02-23T17:25:19.424Z,52.80
2024-02-23T17:27:55.348Z,52.80
2024-02-23T17:30:28.084Z,52.70
2024-02-23T17:33:14.700Z,52.90
2024-02-23T17:35:54.441Z,52.80
2024-02-23T17:38:36.768Z,52.80
2024-02-23T17:41:28.090Z,53.00
2024-02-23T17:44:00.909Z,52.90
2024-02-23T17:46:33.483Z,53.10
2024-02-23T17:52:05.365Z,53.10
2024-02-23T17:55:45.173Z,52.90
2024-02-23T17:58:26.446Z,52.50
2024-02-23T18:01:21.771Z,52.90
2024-02-23T18:03:55.388Z,52.90
2024-02-23T18:06:54.633Z,52.90
2024-02-23T18:09:27.131Z,53.00
2024-02-23T18:11:54.321Z,53.00
2024-02-23T18:14:21.404Z,53.10
2024-02-23T18:16:52.098Z,53.10
2024-02-23T18:19:21.834Z,53.40
2024-02-23T18:21:51.189Z,53.30
2024-02-23T18:24:21.167Z,53.50
2024-02-23T18:26:48.062Z,53.40
2024-02-23T18:29:15.184Z,53.50
2024-02-23T18:31:42.225Z,53.50
2024-02-23T18:34:11.673Z,53.40
2024-02-23T18:36:38.758Z,53.60
2024-02-23T18:39:07.030Z,53.40
2024-02-23T18:41:34.323Z,53.60
2024-02-23T18:44:07.430Z,53.60
2024-02-23T18:46:37.762Z,53.60
2024-02-23T18:49:11.479Z,53.50
2024-02-23T18:51:46.138Z,53.70
2024-02-23T18:54:14.011Z,53.80
2024-02-23T18:56:59.607Z,53.70
2024-02-23T18:59:31.776Z,53.80
2024-02-23T19:02:11.099Z,54.00
2024-02-23T19:04:48.074Z,53.90
2024-02-23T19:07:27.685Z,53.80
2024-02-23T19:09:56.853Z,53.90
2024-02-23T19:12:23.992Z,54.00
2024-02-23T19:14:51.099Z,54.10
2024-02-23T19:17:18.152Z,54.10
2024-02-23T19:19:50.235Z,54.10
2024-02-23T19:22:17.955Z,54.60
2024-02-23T19:25:01.180Z,54.80
2024-02-23T19:27:58.952Z,54.30
2024-02-23T19:30:49.311Z,54.30
2024-02-23T19:33:26.277Z,54.30
2024-02-23T19:35:55.933Z,54.30
2024-02-23T19:38:23.119Z,54.60
2024-02-23T19:40:53.086Z,54.30
2024-02-23T19:43:20.315Z,54.30
2024-02-23T19:45:50.828Z,54.10
2024-02-23T19:48:21.512Z,54.30
2024-02-23T19:50:48.692Z,54.20
2024-02-23T19:53:16.133Z,54.40
2024-02-23T19:55:47.392Z,54.50
2024-02-23T19:58:14.494Z,54.30
2024-02-23T20:00:41.484Z,54.40
2024-02-23T20:03:08.389Z,54.30
2024-02-23T20:05:35.750Z,54.30
2024-02-23T20:08:02.795Z,54.30
2024-02-23T20:10:29.916Z,54.50
2024-02-23T20:12:59.930Z,54.50
2024-02-23T20:15:29.065Z,54.30
2024-02-23T20:17:57.452Z,54.50
2024-02-23T20:20:24.948Z,54.40
2024-02-23T20:22:57.764Z,54.60
2024-02-23T20:25:32.050Z,54.50
2024-02-23T20:28:02.732Z,54.40
2024-02-23T20:30:47.345Z,54.50
2024-02-23T20:33:15.668Z,54.50
2024-02-23T20:36:16.052Z,54.50
2024-02-23T20:38:57.956Z,54.60
2024-02-23T20:41:43.709Z,54.60
2024-02-23T20:47:39.858Z,54.70
2024-02-23T20:54:05.103Z,54.70
2024-02-23T20:56:37.322Z,54.50
2024-02-23T21:02:42.236Z,54.90
2024-02-23T21:05:26.348Z,54.90
2024-02-23T21:08:06.142Z,55.30
2024-02-23T21:10:57.093Z,55.00
2024-02-23T21:14:02.122Z,55.20
2024-02-23T21:16:41.628Z,55.50
2024-02-23T21:19:11.498Z,56.00
2024-02-23T21:21:44.464Z,56.00
2024-02-23T21:24:19.842Z,56.00
2024-02-23T21:27:04.630Z,56.70
2024-02-23T21:29:47.856Z,56.50
2024-02-23T21:32:52.941Z,56.20
2024-02-23T21:39:14.112Z,56.20
2024-02-23T21:42:29.374Z,56.10
2024-02-23T21:45:27.008Z,56.00
2024-02-23T21:48:40.893Z,56.00
2024-02-23T21:51:26.375Z,56.10
2024-02-23T21:54:09.913Z,56.00
2024-02-23T21:56:46.088Z,56.50
2024-02-23T22:02:40.358Z,56.00
2024-02-23T22:05:49.643Z,56.00
2024-02-23T22:08:52.388Z,56.10
2024-02-23T22:11:52.216Z,56.30
2024-02-23T22:14:37.333Z,56.00
2024-02-23T22:17:44.581Z,55.90
2024-02-23T22:20:39.560Z,55.90
2024-02-23T22:23:36.119Z,56.00
2024-02-23T22:26:23.351Z,55.80
2024-02-23T22:29:30.659Z,56.20
2024-02-23T22:32:30.516Z,56.20
2024-02-23T22:35:24.883Z,56.10
2024-02-23T22:38:25.118Z,56.20
2024-02-23T22:41:11.288Z,56.30
2024-02-23T22:43:55.182Z,56.30
2024-02-23T22:46:58.419Z,56.10
2024-02-23T22:49:33.469Z,56.60
2024-02-23T22:52:08.915Z,56.40
2024-02-23T22:54:49.217Z,56.30
2024-02-23T22:57:32.783Z,56.30
2024-02-23T23:07:01.625Z,56.20
2024-02-23T23:09:38.800Z,56.40
2024-02-23T23:14:57.381Z,56.20
2024-02-23T23:17:26.747Z,56.10
2024-02-23T23:19:57.821Z,56.30
2024-02-23T23:22:26.967Z,56.30
2024-02-23T23:25:00.335Z,56.40
2024-02-23T23:27:36.134Z,56.40
2024-02-23T23:30:03.511Z,56.50
2024-02-23T23:32:36.039Z,56.50
2024-02-23T23:35:03.337Z,56.70
2024-02-23T23:37:30.308Z,56.60
2024-02-23T23:40:02.435Z,56.80
2024-02-23T23:45:22.793Z,57.00
2024-02-23T23:48:04.719Z,57.00
2024-02-23T23:50:31.833Z,57.10
2024-02-23T23:53:02.748Z,57.20
2024-02-23T23:55:29.867Z,57.70
2024-02-23T23:58:10.850Z,57.80
